powered by Meteolive.it
Dati meteo   Attuali  Passati Ogni 3 ore 7 Giorni 15 Giorni Avvisi Meteo Mappe meteo
Palermo / Punta Raisi, Italy
Alba: 5:26 AM UTC1
Tramonto: 6:53 PM UTC1
 Lat: 38.17N, Lon: 13.08E
ICAO Usato: LICJ
Condizioni Meteo Attuali Aggiornate: 21.08.2017 alle 19:20 LT
Parz Nuvoloso
Parz Nuvoloso
Parz Nuvoloso
N/D
Temp: 28°C
Umidita': 62%
Direz/Vel. Vento: NNW 06 KTS raffiche
Pressione: 1013 hPa
Punto di rugiada: 20°C
Temperatura percepita: 29°C
Visibilitą: >10 KM (ottima)
Temperatura percepita in
presenza di vento (Wind Chill)
:
N/D
T. max (ultime 24 ore): 28°C
T. min (ultime 24 ore): 25°C


METAR ORIGINALE
LICJ 211520Z 34006KT 9999 FEW030 28/20 Q1013